Aeroporto :
LOGIN :

Iscrizione | Disclaimer

   EN    FR    IT 

 










Sommario :    VFR   VFR Marginale   IFR   IFR Intensivo   IFR Molto Intensivo
Visibilità : 
Base nubi : 
>= 8 km
>= 3000ft
5 / 8 km
1000 / 3000 ft
1500m / 5 km
500 / 1000 ft
800 / 1500m
200 / 500 ft
< 800m
< 200 ft
Simboli :   Temporali  Nebbia  Neve Forte  Precipitazioni Forti  Vento > 20 kt
SIGMETs :   Varie  Temporali  Ghiacco  Turbolenza  Onda orograficha  Ceneri Vulcaniche






- Altitudine del aeroporto : 788 ft
- Codice IATA : DCM


LFCK - Castres-Mazamet

ULTIMO METAR :
  • 121000Z AUTO 28003KT 230V320 CAVOK 18/11 Q1033 NOSIG

METARs OBSOLETI :
  • 120930Z AUTO VRB03KT CAVOK 17/11 Q1033 NOSIG
  • 120900Z AUTO VRB02KT CAVOK 16/11 Q1033 NOSIG
  • 120830Z AUTO 00000KT CAVOK 15/10 Q1033 NOSIG
  • 120800Z AUTO VRB02KT CAVOK 13/10 Q1033 NOSIG
  • 120730Z AUTO VRB02KT CAVOK 12/10 Q1033 NOSIG
  • 120700Z AUTO 00000KT CAVOK 11/09 Q1033 NOSIG
  • 120630Z AUTO 00000KT CAVOK 09/09 Q1033 NOSIG
  • 120600Z AUTO 09001KT CAVOK 08/07 Q1033 NOSIG
  • 120530Z AUTO 13002KT CAVOK 06/05 Q1033 NOSIG

TAF TAF LFCK
Valido dal 12 a 09 ore il 12 a 18 ore UTC


120800Z 1209/1218 VRB03KT CAVOK



MetMap, La meteo Aeronautica in un colpo d'occhio ! - Copyright ORBIFLY Dicembre 2007 - Disclaimer

ORBIFLY MET'MAP TEAM :

Programmazione e sviluppo : Alexandra Zaïnal
Concezione : Baudouin d'Aumeries
Supporto tecnico e logistico : Manuel Goepfert
Aiuto : Marc-Olivier Méhu
Aiuto per la traduzione : Arnaldo La Scala




FONTI E CREDITI :

   NOAA